Wetterdaten: Woche 06.04.09 - 12.04.09 (KW15)
Datum Zeit Temperatur Luftfeuchte Luftdruck Niederschlag Windrichtung Wind
06.04.2009 00:00 9,0 C 88 % 1017,3 hPa 0,0 l/m N-NW 3,7 km/h (1 Bft)
06.04.2009 01:00 8,3 C 90 % 1017,1 hPa 0,0 l/m N-NW 3,6 km/h (1 Bft)
06.04.2009 02:00 7,5 C 91 % 1016,8 hPa 0,0 l/m N-NW 3,6 km/h (1 Bft)
06.04.2009 03:00 6,8 C 93 % 1016,6 hPa 0,0 l/m N-NW 5,3 km/h (1 Bft)
06.04.2009 04:00 6,5 C 94 % 1016,2 hPa 0,0 l/m N-NW 3,5 km/h (1 Bft)
06.04.2009 05:00 6,0 C 94 % 1016,0 hPa 0,0 l/m N-NW 2,7 km/h (1 Bft)
06.04.2009 06:00 5,3 C 94 % 1015,8 hPa 0,0 l/m N-NW 1,5 km/h (1 Bft)
06.04.2009 07:00 4,8 C 95 % 1016,1 hPa 0,0 l/m N-NW 2,4 km/h (1 Bft)
06.04.2009 08:00 5,6 C 97 % 1016,4 hPa 0,0 l/m N 0,9 km/h (0 Bft)
06.04.2009 09:00 7,9 C 97 % 1016,4 hPa 0,0 l/m O 3,6 km/h (1 Bft)
06.04.2009 10:00 11,1 C 80 % 1016,3 hPa 0,0 l/m S 8,8 km/h (2 Bft)
06.04.2009 11:00 13,3 C 75 % 1015,9 hPa 0,0 l/m SW 9,3 km/h (2 Bft)
06.04.2009 12:00 15,6 C 64 % 1015,2 hPa 0,0 l/m SW 8,6 km/h (2 Bft)
06.04.2009 13:00 17,3 C 56 % 1014,2 hPa 0,0 l/m S-SO 9,7 km/h (2 Bft)
06.04.2009 14:00 18,8 C 50 % 1013,3 hPa 0,0 l/m S-SW 10,0 km/h (2 Bft)
06.04.2009 15:00 19,7 C 42 % 1012,6 hPa 0,0 l/m S-SW 14,6 km/h (3 Bft)
06.04.2009 16:00 20,0 C 37 % 1011,9 hPa 0,0 l/m SW 13,0 km/h (3 Bft)
06.04.2009 17:00 19,7 C 34 % 1011,2 hPa 0,0 l/m SW 8,9 km/h (2 Bft)
06.04.2009 18:00 19,1 C 35 % 1010,8 hPa 0,0 l/m SW 9,3 km/h (2 Bft)
06.04.2009 19:00 16,5 C 45 % 1010,6 hPa 0,0 l/m SW 2,1 km/h (1 Bft)
06.04.2009 20:00 13,2 C 57 % 1011,0 hPa 0,0 l/m N 0,4 km/h (0 Bft)
06.04.2009 21:00 11,2 C 65 % 1011,3 hPa 0,0 l/m N 0,0 km/h (0 Bft)
06.04.2009 22:00 10,3 C 66 % 1011,3 hPa 0,0 l/m N 0,3 km/h (0 Bft)
06.04.2009 23:00 9,5 C 70 % 1011,1 hPa 0,0 l/m N 0,0 km/h (0 Bft)
07.04.2009 00:00 8,7 C 73 % 1010,9 hPa 0,0 l/m N 0,5 km/h (0 Bft)
07.04.2009 01:00 7,9 C 77 % 1010,8 hPa 0,0 l/m N 0,0 km/h (0 Bft)
07.04.2009 02:00 7,0 C 80 % 1010,5 hPa 0,0 l/m N 0,0 km/h (0 Bft)
07.04.2009 03:00 6,3 C 83 % 1010,4 hPa 0,0 l/m N 0,0 km/h (0 Bft)
07.04.2009 04:00 5,5 C 86 % 1010,2 hPa 0,0 l/m N 0,0 km/h (0 Bft)
07.04.2009 05:00 4,9 C 88 % 1009,9 hPa 0,0 l/m N 0,0 km/h (0 Bft)
07.04.2009 06:00 4,4 C 89 % 1010,1 hPa 0,0 l/m N 0,0 km/h (0 Bft)
07.04.2009 07:00 4,2 C 91 % 1010,4 hPa 0,0 l/m N 0,0 km/h (0 Bft)
07.04.2009 08:00 5,4 C 93 % 1010,6 hPa 0,0 l/m N 1,1 km/h (0 Bft)
07.04.2009 09:00 9,3 C 81 % 1010,4 hPa 0,0 l/m S-SW 8,9 km/h (2 Bft)
07.04.2009 10:00 13,2 C 64 % 1010,5 hPa 0,0 l/m S-SW 11,7 km/h (2 Bft)
07.04.2009 11:00 16,1 C 54 % 1010,3 hPa 0,0 l/m SW 11,0 km/h (2 Bft)
07.04.2009 12:00 18,5 C 46 % 1010,0 hPa 0,0 l/m SW 7,0 km/h (2 Bft)
07.04.2009 13:00 19,6 C 38 % 1009,6 hPa 0,0 l/m S-SW 10,9 km/h (2 Bft)
07.04.2009 14:00 20,3 C 30 % 1009,2 hPa 0,0 l/m S-SW 14,8 km/h (3 Bft)
07.04.2009 15:00 20,8 C 28 % 1009,0 hPa 0,0 l/m SW 16,5 km/h (3 Bft)
07.04.2009 16:00 20,6 C 26 % 1008,9 hPa 0,0 l/m SW 22,0 km/h (4 Bft)
07.04.2009 17:00 20,2 C 29 % 1008,9 hPa 0,0 l/m W-SW 14,5 km/h (3 Bft)
07.04.2009 18:00 19,3 C 32 % 1009,0 hPa 0,0 l/m W-SW 13,7 km/h (3 Bft)
07.04.2009 19:00 17,6 C 37 % 1009,4 hPa 0,0 l/m W 8,9 km/h (2 Bft)
07.04.2009 20:00 15,1 C 50 % 1010,3 hPa 0,0 l/m N-NW 9,0 km/h (2 Bft)
07.04.2009 21:00 13,9 C 58 % 1011,1 hPa 0,0 l/m N-NW 4,9 km/h (1 Bft)
07.04.2009 22:00 12,4 C 63 % 1011,6 hPa 0,0 l/m N-NW 1,6 km/h (1 Bft)
07.04.2009 23:00 10,8 C 69 % 1012,2 hPa 0,0 l/m NW 5,0 km/h (1 Bft)
08.04.2009 00:00 10,3 C 70 % 1012,8 hPa 0,0 l/m N 4,1 km/h (1 Bft)
08.04.2009 01:00 8,9 C 76 % 1013,5 hPa 0,0 l/m S-SW 2,3 km/h (1 Bft)
08.04.2009 02:00 7,8 C 80 % 1013,9 hPa 0,0 l/m SW 1,2 km/h (1 Bft)
08.04.2009 03:00 7,2 C 84 % 1014,0 hPa 0,0 l/m SW 3,7 km/h (1 Bft)
08.04.2009 04:00 7,0 C 85 % 1014,0 hPa 0,0 l/m S-SW 6,4 km/h (2 Bft)
08.04.2009 05:00 7,1 C 85 % 1013,9 hPa 0,0 l/m N 1,7 km/h (1 Bft)
08.04.2009 06:00 6,8 C 85 % 1014,0 hPa 0,0 l/m N 0,1 km/h (0 Bft)
08.04.2009 07:00 6,2 C 87 % 1014,5 hPa 0,0 l/m N 0,0 km/h (0 Bft)
08.04.2009 08:00 6,8 C 89 % 1015,0 hPa 0,0 l/m S 2,9 km/h (1 Bft)
08.04.2009 09:00 10,0 C 80 % 1015,3 hPa 0,0 l/m S-SW 11,0 km/h (2 Bft)
08.04.2009 10:00 12,4 C 70 % 1015,2 hPa 0,0 l/m S-SW 11,8 km/h (2 Bft)
08.04.2009 11:00 13,7 C 64 % 1015,0 hPa 0,0 l/m S-SW 16,5 km/h (3 Bft)
08.04.2009 12:00 14,7 C 59 % 1014,8 hPa 0,0 l/m SW 12,5 km/h (3 Bft)
08.04.2009 13:00 15,1 C 55 % 1014,6 hPa 0,0 l/m W 13,6 km/h (3 Bft)
08.04.2009 14:00 15,2 C 56 % 1014,7 hPa 0,0 l/m SW 10,9 km/h (2 Bft)
08.04.2009 15:00 15,5 C 54 % 1014,5 hPa 0,0 l/m SW 14,4 km/h (3 Bft)
08.04.2009 16:00 16,3 C 51 % 1014,2 hPa 0,0 l/m W 14,4 km/h (3 Bft)
08.04.2009 17:00 16,5 C 49 % 1014,2 hPa 0,0 l/m W 14,2 km/h (3 Bft)
08.04.2009 18:00 15,8 C 51 % 1014,5 hPa 0,0 l/m W 9,7 km/h (2 Bft)
08.04.2009 19:00 15,0 C 53 % 1014,9 hPa 0,0 l/m W-SW 7,0 km/h (2 Bft)
08.04.2009 20:00 14,2 C 59 % 1015,3 hPa 0,0 l/m SW 2,4 km/h (1 Bft)
08.04.2009 21:00 12,9 C 65 % 1015,8 hPa 0,0 l/m SW 2,7 km/h (1 Bft)
08.04.2009 22:00 12,2 C 70 % 1016,1 hPa 0,0 l/m S 2,7 km/h (1 Bft)
08.04.2009 23:00 11,8 C 72 % 1016,4 hPa 0,0 l/m S 2,5 km/h (1 Bft)
09.04.2009 00:00 10,6 C 77 % 1016,6 hPa 0,0 l/m N 0,1 km/h (0 Bft)
09.04.2009 01:00 9,1 C 81 % 1017,0 hPa 0,0 l/m N 0,1 km/h (0 Bft)
09.04.2009 02:00 7,9 C 84 % 1017,1 hPa 0,0 l/m N 0,1 km/h (0 Bft)
09.04.2009 03:00 7,0 C 86 % 1017,1 hPa 0,0 l/m N 0,3 km/h (0 Bft)
09.04.2009 04:00 6,2 C 88 % 1017,0 hPa 0,0 l/m N 0,0 km/h (0 Bft)
09.04.2009 05:00 5,6 C 88 % 1017,2 hPa 0,0 l/m N 0,1 km/h (0 Bft)
09.04.2009 06:00 5,0 C 89 % 1017,4 hPa 0,0 l/m N 0,1 km/h (0 Bft)
09.04.2009 07:00 4,6 C 91 % 1017,5 hPa 0,0 l/m N 0,3 km/h (0 Bft)
09.04.2009 08:00 5,9 C 94 % 1017,5 hPa 0,0 l/m S 2,3 km/h (1 Bft)
09.04.2009 09:00 9,6 C 81 % 1017,5 hPa 0,0 l/m O-NO 4,1 km/h (1 Bft)
09.04.2009 10:00 13,0 C 65 % 1017,5 hPa 0,0 l/m NO 7,1 km/h (2 Bft)
09.04.2009 11:00 15,0 C 55 % 1016,8 hPa 0,0 l/m O-SO 12,1 km/h (2 Bft)
09.04.2009 12:00 17,0 C 49 % 1016,1 hPa 0,0 l/m NO 16,0 km/h (3 Bft)
09.04.2009 13:00 18,3 C 46 % 1015,0 hPa 0,0 l/m O-NO 15,0 km/h (3 Bft)
09.04.2009 14:00 19,3 C 43 % 1014,1 hPa 0,0 l/m O-SO 18,5 km/h (3 Bft)
09.04.2009 15:00 19,9 C 42 % 1013,3 hPa 0,0 l/m SO 17,0 km/h (3 Bft)
09.04.2009 16:00 20,1 C 41 % 1012,6 hPa 0,0 l/m O-NO 15,2 km/h (3 Bft)
09.04.2009 17:00 20,0 C 41 % 1012,2 hPa 0,0 l/m NO 12,6 km/h (3 Bft)
09.04.2009 18:00 19,5 C 43 % 1012,0 hPa 0,0 l/m O-NO 10,6 km/h (2 Bft)
09.04.2009 19:00 18,0 C 49 % 1012,0 hPa 0,0 l/m O-NO 6,8 km/h (2 Bft)
09.04.2009 20:00 15,1 C 60 % 1012,0 hPa 0,0 l/m NO 2,3 km/h (1 Bft)
09.04.2009 21:00 12,7 C 70 % 1012,3 hPa 0,0 l/m N 1,7 km/h (1 Bft)
09.04.2009 22:00 12,0 C 71 % 1012,1 hPa 0,0 l/m NO 2,7 km/h (1 Bft)
09.04.2009 23:00 11,3 C 74 % 1011,8 hPa 0,0 l/m N-NO 3,3 km/h (1 Bft)
10.04.2009 00:00 10,5 C 77 % 1011,4 hPa 0,0 l/m N-NO 3,1 km/h (1 Bft)
10.04.2009 01:00 9,6 C 80 % 1011,5 hPa 0,0 l/m N 1,5 km/h (1 Bft)
10.04.2009 02:00 8,8 C 83 % 1011,2 hPa 0,0 l/m N 1,1 km/h (0 Bft)
10.04.2009 03:00 7,9 C 84 % 1011,1 hPa 0,0 l/m N 0,8 km/h (0 Bft)
10.04.2009 04:00 6,9 C 87 % 1010,9 hPa 0,0 l/m N 0,4 km/h (0 Bft)
10.04.2009 05:00 6,0 C 89 % 1010,6 hPa 0,0 l/m N 0,1 km/h (0 Bft)
10.04.2009 06:00 5,3 C 89 % 1010,4 hPa 0,0 l/m N 0,7 km/h (0 Bft)
10.04.2009 07:00 5,0 C 92 % 1010,5 hPa 0,0 l/m N 0,7 km/h (0 Bft)
10.04.2009 08:00 6,8 C 96 % 1010,2 hPa 0,0 l/m N-NO 2,1 km/h (1 Bft)
10.04.2009 09:00 11,0 C 74 % 1009,9 hPa 0,0 l/m NO 4,4 km/h (1 Bft)
10.04.2009 10:00 14,6 C 51 % 1009,7 hPa 0,0 l/m O-SO 5,7 km/h (1 Bft)
10.04.2009 11:00 17,2 C 44 % 1009,1 hPa 0,0 l/m O-SO 8,0 km/h (2 Bft)
10.04.2009 12:00 19,5 C 36 % 1008,3 hPa 0,0 l/m O-SO 12,6 km/h (3 Bft)
10.04.2009 13:00 20,9 C 30 % 1007,4 hPa 0,0 l/m O 13,8 km/h (3 Bft)
10.04.2009 14:00 21,9 C 26 % 1006,8 hPa 0,0 l/m O-SO 13,8 km/h (3 Bft)
10.04.2009 15:00 22,1 C 26 % 1006,1 hPa 0,0 l/m W-SW 22,3 km/h (4 Bft)
10.04.2009 16:00 22,2 C 25 % 1005,5 hPa 0,0 l/m S 22,7 km/h (4 Bft)
10.04.2009 17:00 21,8 C 26 % 1005,3 hPa 0,0 l/m SW 19,2 km/h (3 Bft)
10.04.2009 18:00 20,6 C 28 % 1005,1 hPa 0,0 l/m SW 19,3 km/h (3 Bft)
10.04.2009 19:00 18,2 C 34 % 1005,1 hPa 0,0 l/m SW 12,9 km/h (3 Bft)
10.04.2009 20:00 16,2 C 37 % 1005,5 hPa 0,0 l/m SW 8,6 km/h (2 Bft)
10.04.2009 21:00 16,2 C 35 % 1005,7 hPa 0,0 l/m W-SW 21,7 km/h (4 Bft)
10.04.2009 22:00 15,3 C 37 % 1005,7 hPa 0,0 l/m SW 18,4 km/h (3 Bft)
10.04.2009 23:00 12,9 C 45 % 1005,9 hPa 0,0 l/m S-SW 5,9 km/h (2 Bft)
11.04.2009 00:00 11,1 C 52 % 1005,9 hPa 0,0 l/m SW 4,0 km/h (1 Bft)
11.04.2009 01:00 10,2 C 56 % 1006,0 hPa 0,0 l/m S-SW 2,8 km/h (1 Bft)
11.04.2009 02:00 8,7 C 63 % 1006,0 hPa 0,0 l/m N 0,4 km/h (0 Bft)
11.04.2009 03:00 7,9 C 67 % 1006,0 hPa 0,0 l/m N 0,7 km/h (0 Bft)
11.04.2009 04:00 6,9 C 72 % 1006,0 hPa 0,0 l/m N 0,5 km/h (0 Bft)
11.04.2009 05:00 6,0 C 76 % 1005,9 hPa 0,0 l/m N 0,0 km/h (0 Bft)
11.04.2009 06:00 5,2 C 80 % 1006,0 hPa 0,0 l/m N 0,0 km/h (0 Bft)
11.04.2009 07:00 5,4 C 80 % 1006,2 hPa 0,0 l/m N 0,5 km/h (0 Bft)
11.04.2009 08:00 9,5 C 61 % 1006,5 hPa 0,0 l/m N 1,1 km/h (0 Bft)
11.04.2009 09:00 13,6 C 48 % 1006,5 hPa 0,0 l/m S-SW 7,4 km/h (2 Bft)
11.04.2009 10:00 16,6 C 39 % 1006,6 hPa 0,0 l/m SO 9,7 km/h (2 Bft)
11.04.2009 11:00 18,7 C 32 % 1006,7 hPa 0,0 l/m S-SW 15,4 km/h (3 Bft)
11.04.2009 12:00 20,0 C 31 % 1006,5 hPa 0,0 l/m SW 20,2 km/h (4 Bft)
11.04.2009 13:00 21,0 C 27 % 1006,1 hPa 0,0 l/m SW 23,3 km/h (4 Bft)
11.04.2009 14:00 21,6 C 27 % 1005,9 hPa 0,0 l/m S-SW 22,5 km/h (4 Bft)
11.04.2009 15:00 21,8 C 28 % 1005,5 hPa 0,0 l/m S 17,8 km/h (3 Bft)
11.04.2009 16:00 22,0 C 26 % 1005,1 hPa 0,0 l/m SW 15,8 km/h (3 Bft)
11.04.2009 17:00 21,5 C 27 % 1005,2 hPa 0,0 l/m SW 14,9 km/h (3 Bft)
11.04.2009 18:00 20,8 C 27 % 1005,4 hPa 0,0 l/m W 12,7 km/h (3 Bft)
11.04.2009 19:00 18,6 C 30 % 1005,7 hPa 0,0 l/m W-SW 11,0 km/h (2 Bft)
11.04.2009 20:00 15,6 C 40 % 1006,1 hPa 0,0 l/m W-SW 1,5 km/h (1 Bft)
11.04.2009 21:00 12,9 C 53 % 1006,5 hPa 0,0 l/m N 0,3 km/h (0 Bft)
11.04.2009 22:00 11,2 C 59 % 1006,7 hPa 0,0 l/m N 0,1 km/h (0 Bft)
11.04.2009 23:00 9,8 C 65 % 1006,8 hPa 0,0 l/m N 0,0 km/h (0 Bft)
12.04.2009 00:00 8,9 C 69 % 1006,9 hPa 0,0 l/m N 0,8 km/h (0 Bft)
12.04.2009 01:00 8,2 C 70 % 1006,7 hPa 0,0 l/m N 0,3 km/h (0 Bft)
12.04.2009 02:00 7,4 C 73 % 1006,6 hPa 0,0 l/m N 0,0 km/h (0 Bft)
12.04.2009 03:00 6,8 C 75 % 1006,5 hPa 0,0 l/m N 0,8 km/h (0 Bft)
12.04.2009 04:00 6,1 C 77 % 1006,6 hPa 0,0 l/m N 0,1 km/h (0 Bft)
12.04.2009 05:00 5,9 C 79 % 1006,8 hPa 0,0 l/m N 0,8 km/h (0 Bft)
12.04.2009 06:00 5,7 C 80 % 1006,8 hPa 0,0 l/m N 0,3 km/h (0 Bft)
12.04.2009 07:00 6,7 C 78 % 1007,0 hPa 0,0 l/m N 0,1 km/h (0 Bft)
12.04.2009 08:00 8,7 C 74 % 1007,1 hPa 0,0 l/m N 2,5 km/h (1 Bft)
12.04.2009 09:00 11,4 C 61 % 1007,2 hPa 0,0 l/m N-NO 3,3 km/h (1 Bft)
12.04.2009 10:00 14,8 C 46 % 1007,4 hPa 0,0 l/m NO 4,3 km/h (1 Bft)
12.04.2009 11:00 17,2 C 40 % 1007,1 hPa 0,0 l/m SW 7,2 km/h (2 Bft)
12.04.2009 12:00 18,8 C 35 % 1006,8 hPa 0,0 l/m S-SW 9,0 km/h (2 Bft)
12.04.2009 13:00 20,2 C 28 % 1006,7 hPa 0,0 l/m SO 11,3 km/h (2 Bft)
12.04.2009 14:00 20,9 C 27 % 1006,4 hPa 0,0 l/m O-SO 10,7 km/h (2 Bft)
12.04.2009 15:00 21,0 C 27 % 1006,0 hPa 0,0 l/m O-NO 13,0 km/h (3 Bft)
12.04.2009 16:00 21,1 C 27 % 1005,8 hPa 0,0 l/m NO 15,2 km/h (3 Bft)
12.04.2009 17:00 20,3 C 27 % 1005,8 hPa 0,0 l/m O-SO 8,8 km/h (2 Bft)
12.04.2009 18:00 18,8 C 34 % 1005,9 hPa 0,0 l/m N 6,6 km/h (2 Bft)
12.04.2009 19:00 16,9 C 42 % 1006,1 hPa 0,0 l/m NW 5,1 km/h (1 Bft)
12.04.2009 20:00 14,8 C 48 % 1006,5 hPa 0,0 l/m N-NW 6,0 km/h (2 Bft)
12.04.2009 21:00 13,2 C 53 % 1006,8 hPa 0,0 l/m N-NW 5,2 km/h (1 Bft)
12.04.2009 22:00 11,7 C 59 % 1006,9 hPa 0,0 l/m N 1,1 km/h (0 Bft)
12.04.2009 23:00 10,6 C 63 % 1006,8 hPa 0,0 l/m N-NW 3,1 km/h (1 Bft)
Min-Datum _ 07.04.09 10.04.09 10.04.09 - - 06.04.09
_ Min-Zeit 07:05 14:55 18:30 - - 04:50
Minimum _ 4,2 C 22 % 1004,9 hPa - - 0,0 km/h (0 Bft)
Max-Datum _ 10.04.09 06.04.09 09.04.09 06.04.09 - 11.04.09
_ Max-Zeit 16:50 09:15 07:15 00:00 - 14:10
Maximum _ 22,6 C 99 % 1017,6 hPa 0,0 l/m - 38,6 km/h
SW (5 Bft)
Durchschnitt _ 12,8 C 61 % 1010,7 hPa #0,0 l/m SW 6,7 km/h (2 Bft)